sensor_id;sensor_type;location;lat;lon;timestamp;P1;durP1;ratioP1;P2;durP2;ratioP2
68284;SDS011;55114;52.052;5.238;2022-09-09T00:02:27;6.43;;;2.57;;
68284;SDS011;55114;52.052;5.238;2022-09-09T00:05:09;6.43;;;2.30;;
68284;SDS011;55114;52.052;5.238;2022-09-09T00:07:43;7.82;;;2.60;;
68284;SDS011;55114;52.052;5.238;2022-09-09T00:12:59;6.18;;;2.60;;
68284;SDS011;55114;52.052;5.238;2022-09-09T00:15:41;6.97;;;2.90;;
68284;SDS011;55114;52.052;5.238;2022-09-09T00:20:57;6.05;;;2.90;;
68284;SDS011;55114;52.052;5.238;2022-09-09T00:23:29;7.32;;;2.83;;
68284;SDS011;55114;52.052;5.238;2022-09-09T00:26:02;6.57;;;2.80;;
68284;SDS011;55114;52.052;5.238;2022-09-09T00:28:31;6.10;;;2.57;;
68284;SDS011;55114;52.052;5.238;2022-09-09T00:31:14;6.25;;;2.78;;
68284;SDS011;55114;52.052;5.238;2022-09-09T00:33:42;6.10;;;3.00;;
68284;SDS011;55114;52.052;5.238;2022-09-09T00:36:13;5.80;;;2.65;;
68284;SDS011;55114;52.052;5.238;2022-09-09T00:38:45;6.53;;;2.67;;
68284;SDS011;55114;52.052;5.238;2022-09-09T00:43:41;7.05;;;2.50;;
68284;SDS011;55114;52.052;5.238;2022-09-09T00:49:00;7.38;;;2.60;;
68284;SDS011;55114;52.052;5.238;2022-09-09T00:56:36;7.28;;;2.53;;
68284;SDS011;55114;52.052;5.238;2022-09-09T01:01:38;6.85;;;2.70;;
68284;SDS011;55114;52.052;5.238;2022-09-09T01:04:08;8.50;;;2.97;;
68284;SDS011;55114;52.052;5.238;2022-09-09T01:06:37;9.70;;;2.87;;
68284;SDS011;55114;52.052;5.238;2022-09-09T01:11:57;7.93;;;3.00;;
68284;SDS011;55114;52.052;5.238;2022-09-09T01:17:04;7.32;;;3.05;;
68284;SDS011;55114;52.052;5.238;2022-09-09T01:19:36;6.97;;;2.63;;
68284;SDS011;55114;52.052;5.238;2022-09-09T01:24:40;5.47;;;2.42;;
68284;SDS011;55114;52.052;5.238;2022-09-09T01:27:09;7.38;;;2.90;;
68284;SDS011;55114;52.052;5.238;2022-09-09T01:29:37;8.25;;;2.90;;
68284;SDS011;55114;52.052;5.238;2022-09-09T01:34:50;6.47;;;2.80;;
68284;SDS011;55114;52.052;5.238;2022-09-09T01:37:18;7.95;;;2.83;;
68284;SDS011;55114;52.052;5.238;2022-09-09T01:39:45;9.48;;;3.10;;
68284;SDS011;55114;52.052;5.238;2022-09-09T01:42:13;7.20;;;3.28;;
68284;SDS011;55114;52.052;5.238;2022-09-09T01:44:41;7.37;;;3.00;;
68284;SDS011;55114;52.052;5.238;2022-09-09T01:47:09;10.70;;;3.17;;
68284;SDS011;55114;52.052;5.238;2022-09-09T01:49:36;7.95;;;3.30;;
68284;SDS011;55114;52.052;5.238;2022-09-09T01:52:03;8.88;;;3.00;;
68284;SDS011;55114;52.052;5.238;2022-09-09T01:54:32;9.52;;;3.10;;
68284;SDS011;55114;52.052;5.238;2022-09-09T02:02:19;7.72;;;3.08;;
68284;SDS011;55114;52.052;5.238;2022-09-09T02:04:52;7.03;;;3.15;;
68284;SDS011;55114;52.052;5.238;2022-09-09T02:09:49;7.83;;;3.20;;
68284;SDS011;55114;52.052;5.238;2022-09-09T02:12:19;8.38;;;2.85;;
68284;SDS011;55114;52.052;5.238;2022-09-09T02:14:52;8.82;;;3.15;;
68284;SDS011;55114;52.052;5.238;2022-09-09T02:17:28;8.45;;;3.08;;
68284;SDS011;55114;52.052;5.238;2022-09-09T02:19:58;10.65;;;3.10;;
68284;SDS011;55114;52.052;5.238;2022-09-09T02:22:26;6.73;;;3.20;;
68284;SDS011;55114;52.052;5.238;2022-09-09T02:24:54;7.32;;;3.10;;
68284;SDS011;55114;52.052;5.238;2022-09-09T02:27:23;7.88;;;3.20;;
68284;SDS011;55114;52.052;5.238;2022-09-09T02:29:50;11.57;;;3.45;;
68284;SDS011;55114;52.052;5.238;2022-09-09T02:32:19;8.55;;;2.83;;
68284;SDS011;55114;52.052;5.238;2022-09-09T02:35:22;6.50;;;3.13;;
68284;SDS011;55114;52.052;5.238;2022-09-09T02:37:41;7.05;;;3.10;;
68284;SDS011;55114;52.052;5.238;2022-09-09T02:40:10;9.88;;;3.20;;
68284;SDS011;55114;52.052;5.238;2022-09-09T02:42:45;7.30;;;3.03;;
68284;SDS011;55114;52.052;5.238;2022-09-09T02:45:14;7.45;;;3.08;;
68284;SDS011;55114;52.052;5.238;2022-09-09T02:47:55;7.97;;;3.17;;
68284;SDS011;55114;52.052;5.238;2022-09-09T02:50:32;7.68;;;3.70;;
68284;SDS011;55114;52.052;5.238;2022-09-09T02:55:41;11.13;;;3.13;;
68284;SDS011;55114;52.052;5.238;2022-09-09T02:58:09;10.02;;;3.20;;
68284;SDS011;55114;52.052;5.238;2022-09-09T03:00:38;11.23;;;3.57;;
68284;SDS011;55114;52.052;5.238;2022-09-09T03:03:06;9.93;;;3.63;;
68284;SDS011;55114;52.052;5.238;2022-09-09T03:05:35;8.10;;;3.70;;
68284;SDS011;55114;52.052;5.238;2022-09-09T03:08:03;11.65;;;3.50;;
68284;SDS011;55114;52.052;5.238;2022-09-09T03:10:32;10.15;;;3.78;;
68284;SDS011;55114;52.052;5.238;2022-09-09T03:12:59;8.70;;;3.43;;
68284;SDS011;55114;52.052;5.238;2022-09-09T03:15:26;8.43;;;3.65;;
68284;SDS011;55114;52.052;5.238;2022-09-09T03:17:57;9.32;;;3.88;;
68284;SDS011;55114;52.052;5.238;2022-09-09T03:20:26;8.48;;;3.80;;
68284;SDS011;55114;52.052;5.238;2022-09-09T03:22:53;11.30;;;3.88;;
68284;SDS011;55114;52.052;5.238;2022-09-09T03:25:21;11.47;;;3.93;;
68284;SDS011;55114;52.052;5.238;2022-09-09T03:27:50;8.20;;;3.85;;
68284;SDS011;55114;52.052;5.238;2022-09-09T03:30:21;8.50;;;3.78;;
68284;SDS011;55114;52.052;5.238;2022-09-09T03:32:48;10.25;;;3.60;;
68284;SDS011;55114;52.052;5.238;2022-09-09T03:35:15;10.18;;;4.50;;
68284;SDS011;55114;52.052;5.238;2022-09-09T03:37:42;11.03;;;4.37;;
68284;SDS011;55114;52.052;5.238;2022-09-09T03:40:10;7.95;;;3.85;;
68284;SDS011;55114;52.052;5.238;2022-09-09T03:42:38;11.02;;;4.70;;
68284;SDS011;55114;52.052;5.238;2022-09-09T03:45:06;15.18;;;4.40;;
68284;SDS011;55114;52.052;5.238;2022-09-09T03:47:35;9.68;;;4.45;;
68284;SDS011;55114;52.052;5.238;2022-09-09T03:50:02;9.70;;;4.03;;
68284;SDS011;55114;52.052;5.238;2022-09-09T03:52:30;10.02;;;4.30;;
68284;SDS011;55114;52.052;5.238;2022-09-09T03:54:57;9.65;;;4.15;;
68284;SDS011;55114;52.052;5.238;2022-09-09T03:57:25;11.88;;;4.25;;
68284;SDS011;55114;52.052;5.238;2022-09-09T03:59:52;12.27;;;4.70;;
68284;SDS011;55114;52.052;5.238;2022-09-09T04:02:19;11.83;;;4.33;;
68284;SDS011;55114;52.052;5.238;2022-09-09T04:04:47;9.63;;;4.35;;
68284;SDS011;55114;52.052;5.238;2022-09-09T04:07:15;15.18;;;4.35;;
68284;SDS011;55114;52.052;5.238;2022-09-09T04:09:42;13.02;;;4.20;;
68284;SDS011;55114;52.052;5.238;2022-09-09T04:12:09;12.15;;;4.43;;
68284;SDS011;55114;52.052;5.238;2022-09-09T04:14:39;11.13;;;4.10;;
68284;SDS011;55114;52.052;5.238;2022-09-09T04:17:07;10.27;;;4.13;;
68284;SDS011;55114;52.052;5.238;2022-09-09T04:19:34;9.80;;;4.35;;
68284;SDS011;55114;52.052;5.238;2022-09-09T04:22:01;12.75;;;4.40;;
68284;SDS011;55114;52.052;5.238;2022-09-09T04:24:28;12.13;;;4.30;;
68284;SDS011;55114;52.052;5.238;2022-09-09T04:26:56;13.23;;;4.60;;
68284;SDS011;55114;52.052;5.238;2022-09-09T04:29:23;8.13;;;3.97;;
68284;SDS011;55114;52.052;5.238;2022-09-09T04:31:50;12.73;;;4.40;;
68284;SDS011;55114;52.052;5.238;2022-09-09T04:34:17;10.95;;;4.30;;
68284;SDS011;55114;52.052;5.238;2022-09-09T04:36:45;8.70;;;4.32;;
68284;SDS011;55114;52.052;5.238;2022-09-09T04:39:12;10.73;;;4.43;;
68284;SDS011;55114;52.052;5.238;2022-09-09T04:41:39;11.30;;;3.88;;
68284;SDS011;55114;52.052;5.238;2022-09-09T04:44:06;14.02;;;4.13;;
68284;SDS011;55114;52.052;5.238;2022-09-09T04:46:34;10.77;;;4.20;;
68284;SDS011;55114;52.052;5.238;2022-09-09T04:49:01;14.23;;;4.30;;
68284;SDS011;55114;52.052;5.238;2022-09-09T04:51:28;9.80;;;3.97;;
68284;SDS011;55114;52.052;5.238;2022-09-09T04:53:57;11.30;;;4.18;;
68284;SDS011;55114;52.052;5.238;2022-09-09T04:56:24;9.20;;;4.18;;
68284;SDS011;55114;52.052;5.238;2022-09-09T04:58:54;10.30;;;3.90;;
68284;SDS011;55114;52.052;5.238;2022-09-09T05:01:21;10.10;;;3.90;;
68284;SDS011;55114;52.052;5.238;2022-09-09T05:03:50;9.43;;;3.70;;
68284;SDS011;55114;52.052;5.238;2022-09-09T05:06:20;9.13;;;3.80;;
68284;SDS011;55114;52.052;5.238;2022-09-09T05:08:48;10.02;;;3.60;;
68284;SDS011;55114;52.052;5.238;2022-09-09T05:11:20;10.05;;;3.65;;
68284;SDS011;55114;52.052;5.238;2022-09-09T05:13:50;8.50;;;3.72;;
68284;SDS011;55114;52.052;5.238;2022-09-09T05:16:18;10.00;;;3.47;;
68284;SDS011;55114;52.052;5.238;2022-09-09T05:18:45;10.85;;;3.85;;
68284;SDS011;55114;52.052;5.238;2022-09-09T05:21:14;11.25;;;3.70;;
68284;SDS011;55114;52.052;5.238;2022-09-09T05:23:41;9.30;;;3.75;;
68284;SDS011;55114;52.052;5.238;2022-09-09T05:26:12;9.68;;;4.10;;
68284;SDS011;55114;52.052;5.238;2022-09-09T05:28:43;8.60;;;3.30;;
68284;SDS011;55114;52.052;5.238;2022-09-09T05:31:11;8.05;;;3.30;;
68284;SDS011;55114;52.052;5.238;2022-09-09T05:33:39;8.70;;;4.03;;
68284;SDS011;55114;52.052;5.238;2022-09-09T05:36:07;10.60;;;3.60;;
68284;SDS011;55114;52.052;5.238;2022-09-09T05:38:36;13.07;;;3.65;;
68284;SDS011;55114;52.052;5.238;2022-09-09T05:41:04;11.57;;;3.53;;
68284;SDS011;55114;52.052;5.238;2022-09-09T05:43:31;8.43;;;3.33;;
68284;SDS011;55114;52.052;5.238;2022-09-09T05:45:59;7.72;;;3.50;;
68284;SDS011;55114;52.052;5.238;2022-09-09T05:48:28;11.50;;;3.50;;
68284;SDS011;55114;52.052;5.238;2022-09-09T05:50:57;9.07;;;3.03;;
68284;SDS011;55114;52.052;5.238;2022-09-09T05:53:25;9.27;;;3.10;;
68284;SDS011;55114;52.052;5.238;2022-09-09T05:56:03;10.98;;;3.47;;
68284;SDS011;55114;52.052;5.238;2022-09-09T05:58:34;12.55;;;3.35;;
68284;SDS011;55114;52.052;5.238;2022-09-09T06:01:08;9.73;;;3.33;;
68284;SDS011;55114;52.052;5.238;2022-09-09T06:03:40;8.70;;;2.90;;
68284;SDS011;55114;52.052;5.238;2022-09-09T06:06:09;8.97;;;3.10;;
68284;SDS011;55114;52.052;5.238;2022-09-09T06:08:38;6.35;;;2.60;;
68284;SDS011;55114;52.052;5.238;2022-09-09T06:11:10;6.80;;;2.80;;
68284;SDS011;55114;52.052;5.238;2022-09-09T06:13:38;10.43;;;2.97;;
68284;SDS011;55114;52.052;5.238;2022-09-09T06:16:08;11.35;;;2.97;;
68284;SDS011;55114;52.052;5.238;2022-09-09T06:18:35;10.43;;;2.93;;
68284;SDS011;55114;52.052;5.238;2022-09-09T06:21:03;5.88;;;2.60;;
68284;SDS011;55114;52.052;5.238;2022-09-09T06:23:31;11.15;;;2.80;;
68284;SDS011;55114;52.052;5.238;2022-09-09T06:26:05;8.13;;;2.50;;
68284;SDS011;55114;52.052;5.238;2022-09-09T06:28:33;11.07;;;3.10;;
68284;SDS011;55114;52.052;5.238;2022-09-09T06:31:01;15.50;;;2.70;;
68284;SDS011;55114;52.052;5.238;2022-09-09T06:33:36;9.57;;;2.80;;
68284;SDS011;55114;52.052;5.238;2022-09-09T06:36:05;9.27;;;2.78;;
68284;SDS011;55114;52.052;5.238;2022-09-09T06:38:32;7.68;;;2.53;;
68284;SDS011;55114;52.052;5.238;2022-09-09T06:40:59;9.02;;;2.60;;
68284;SDS011;55114;52.052;5.238;2022-09-09T06:43:28;8.97;;;2.70;;
68284;SDS011;55114;52.052;5.238;2022-09-09T06:45:59;9.40;;;2.58;;
68284;SDS011;55114;52.052;5.238;2022-09-09T06:48:27;8.15;;;2.30;;
68284;SDS011;55114;52.052;5.238;2022-09-09T06:51:05;8.90;;;2.60;;
68284;SDS011;55114;52.052;5.238;2022-09-09T06:53:33;7.60;;;2.80;;
68284;SDS011;55114;52.052;5.238;2022-09-09T06:56:46;10.20;;;2.53;;
68284;SDS011;55114;52.052;5.238;2022-09-09T06:58:49;8.80;;;2.17;;
68284;SDS011;55114;52.052;5.238;2022-09-09T07:01:19;7.90;;;2.55;;
68284;SDS011;55114;52.052;5.238;2022-09-09T07:03:47;13.48;;;2.20;;
68284;SDS011;55114;52.052;5.238;2022-09-09T07:06:17;9.63;;;2.83;;
68284;SDS011;55114;52.052;5.238;2022-09-09T07:08:48;9.93;;;2.40;;
68284;SDS011;55114;52.052;5.238;2022-09-09T07:11:22;12.15;;;2.30;;
68284;SDS011;55114;52.052;5.238;2022-09-09T07:13:50;8.68;;;2.40;;
68284;SDS011;55114;52.052;5.238;2022-09-09T07:16:18;8.13;;;2.42;;
68284;SDS011;55114;52.052;5.238;2022-09-09T07:18:45;9.30;;;2.72;;
68284;SDS011;55114;52.052;5.238;2022-09-09T07:21:13;8.03;;;2.30;;
68284;SDS011;55114;52.052;5.238;2022-09-09T07:23:41;7.63;;;3.00;;
68284;SDS011;55114;52.052;5.238;2022-09-09T07:26:15;6.65;;;2.50;;
68284;SDS011;55114;52.052;5.238;2022-09-09T07:28:42;9.25;;;2.20;;
68284;SDS011;55114;52.052;5.238;2022-09-09T07:31:14;10.65;;;2.70;;
68284;SDS011;55114;52.052;5.238;2022-09-09T07:33:43;8.73;;;2.87;;
68284;SDS011;55114;52.052;5.238;2022-09-09T07:36:14;10.50;;;3.17;;
68284;SDS011;55114;52.052;5.238;2022-09-09T07:38:43;7.72;;;2.97;;
68284;SDS011;55114;52.052;5.238;2022-09-09T07:41:14;10.27;;;2.90;;
68284;SDS011;55114;52.052;5.238;2022-09-09T07:43:42;8.57;;;2.90;;
68284;SDS011;55114;52.052;5.238;2022-09-09T07:46:10;7.63;;;2.90;;
68284;SDS011;55114;52.052;5.238;2022-09-09T07:48:38;8.20;;;3.22;;
68284;SDS011;55114;52.052;5.238;2022-09-09T07:51:10;9.40;;;3.72;;
68284;SDS011;55114;52.052;5.238;2022-09-09T07:53:38;10.70;;;2.80;;
68284;SDS011;55114;52.052;5.238;2022-09-09T07:56:09;8.57;;;3.15;;
68284;SDS011;55114;52.052;5.238;2022-09-09T07:58:37;9.23;;;2.60;;
68284;SDS011;55114;52.052;5.238;2022-09-09T08:01:09;7.35;;;2.63;;
68284;SDS011;55114;52.052;5.238;2022-09-09T08:03:37;10.50;;;2.75;;
68284;SDS011;55114;52.052;5.238;2022-09-09T08:06:06;8.35;;;2.40;;
68284;SDS011;55114;52.052;5.238;2022-09-09T08:08:34;7.30;;;2.70;;
68284;SDS011;55114;52.052;5.238;2022-09-09T08:11:02;7.13;;;2.40;;
68284;SDS011;55114;52.052;5.238;2022-09-09T08:13:30;8.82;;;2.22;;
68284;SDS011;55114;52.052;5.238;2022-09-09T08:16:05;10.43;;;3.15;;
68284;SDS011;55114;52.052;5.238;2022-09-09T08:18:32;10.20;;;2.33;;
68284;SDS011;55114;52.052;5.238;2022-09-09T08:21:10;6.00;;;2.50;;
68284;SDS011;55114;52.052;5.238;2022-09-09T08:23:40;8.47;;;2.20;;
68284;SDS011;55114;52.052;5.238;2022-09-09T08:26:12;10.88;;;2.70;;
68284;SDS011;55114;52.052;5.238;2022-09-09T08:28:41;7.68;;;2.42;;
68284;SDS011;55114;52.052;5.238;2022-09-09T08:31:11;9.07;;;2.38;;
68284;SDS011;55114;52.052;5.238;2022-09-09T08:33:40;8.57;;;2.30;;
68284;SDS011;55114;52.052;5.238;2022-09-09T08:36:09;6.67;;;2.50;;
68284;SDS011;55114;52.052;5.238;2022-09-09T08:38:36;9.45;;;2.95;;
68284;SDS011;55114;52.052;5.238;2022-09-09T08:41:12;7.20;;;2.63;;
68284;SDS011;55114;52.052;5.238;2022-09-09T08:43:44;8.75;;;2.70;;
68284;SDS011;55114;52.052;5.238;2022-09-09T08:46:20;8.85;;;2.65;;
68284;SDS011;55114;52.052;5.238;2022-09-09T08:51:21;12.13;;;2.65;;
68284;SDS011;55114;52.052;5.238;2022-09-09T08:53:49;11.75;;;2.63;;
68284;SDS011;55114;52.052;5.238;2022-09-09T08:56:24;6.95;;;2.58;;
68284;SDS011;55114;52.052;5.238;2022-09-09T08:58:53;9.23;;;2.83;;
68284;SDS011;55114;52.052;5.238;2022-09-09T09:03:57;9.50;;;2.40;;
68284;SDS011;55114;52.052;5.238;2022-09-09T09:11:39;8.63;;;2.80;;
68284;SDS011;55114;52.052;5.238;2022-09-09T09:14:13;7.83;;;2.50;;
68284;SDS011;55114;52.052;5.238;2022-09-09T09:19:13;9.07;;;2.63;;
68284;SDS011;55114;52.052;5.238;2022-09-09T09:21:45;6.28;;;2.28;;
68284;SDS011;55114;52.052;5.238;2022-09-09T09:24:18;7.63;;;2.38;;
68284;SDS011;55114;52.052;5.238;2022-09-09T09:26:47;5.13;;;2.00;;
68284;SDS011;55114;52.052;5.238;2022-09-09T09:29:15;9.43;;;2.90;;
68284;SDS011;55114;52.052;5.238;2022-09-09T09:31:47;5.90;;;2.42;;
68284;SDS011;55114;52.052;5.238;2022-09-09T09:34:15;10.20;;;2.75;;
68284;SDS011;55114;52.052;5.238;2022-09-09T09:36:44;9.35;;;3.25;;
68284;SDS011;55114;52.052;5.238;2022-09-09T09:39:29;7.27;;;2.70;;
68284;SDS011;55114;52.052;5.238;2022-09-09T09:42:17;8.73;;;2.80;;
68284;SDS011;55114;52.052;5.238;2022-09-09T09:44:48;7.75;;;2.90;;
68284;SDS011;55114;52.052;5.238;2022-09-09T09:47:20;8.70;;;2.97;;
68284;SDS011;55114;52.052;5.238;2022-09-09T09:52:22;10.43;;;2.93;;
68284;SDS011;55114;52.052;5.238;2022-09-09T09:54:50;7.47;;;2.75;;
68284;SDS011;55114;52.052;5.238;2022-09-09T09:57:18;8.57;;;3.00;;
68284;SDS011;55114;52.052;5.238;2022-09-09T09:59:59;9.05;;;2.60;;
68284;SDS011;55114;52.052;5.238;2022-09-09T10:02:31;8.75;;;2.75;;
68284;SDS011;55114;52.052;5.238;2022-09-09T10:05:12;7.00;;;2.57;;
68284;SDS011;55114;52.052;5.238;2022-09-09T10:07:40;7.30;;;2.38;;
68284;SDS011;55114;52.052;5.238;2022-09-09T10:10:10;8.68;;;2.67;;
68284;SDS011;55114;52.052;5.238;2022-09-09T10:28:37;10.10;;;2.80;;
68284;SDS011;55114;52.052;5.238;2022-09-09T10:33:56;11.88;;;3.40;;
68284;SDS011;55114;52.052;5.238;2022-09-09T10:36:27;7.80;;;2.63;;
68284;SDS011;55114;52.052;5.238;2022-09-09T10:39:03;7.70;;;2.55;;
68284;SDS011;55114;52.052;5.238;2022-09-09T10:41:34;7.03;;;2.80;;
68284;SDS011;55114;52.052;5.238;2022-09-09T10:44:22;9.57;;;2.90;;
68284;SDS011;55114;52.052;5.238;2022-09-09T10:49:44;11.10;;;3.22;;
68284;SDS011;55114;52.052;5.238;2022-09-09T10:55:14;9.00;;;2.47;;
68284;SDS011;55114;52.052;5.238;2022-09-09T10:57:47;7.50;;;2.60;;
68284;SDS011;55114;52.052;5.238;2022-09-09T11:00:36;7.03;;;2.97;;
68284;SDS011;55114;52.052;5.238;2022-09-09T11:03:05;9.07;;;3.53;;
68284;SDS011;55114;52.052;5.238;2022-09-09T11:05:41;8.90;;;3.00;;
68284;SDS011;55114;52.052;5.238;2022-09-09T11:08:17;7.90;;;3.10;;
68284;SDS011;55114;52.052;5.238;2022-09-09T11:10:46;9.37;;;3.00;;
68284;SDS011;55114;52.052;5.238;2022-09-09T11:13:17;7.00;;;2.80;;
68284;SDS011;55114;52.052;5.238;2022-09-09T11:15:46;8.18;;;2.85;;
68284;SDS011;55114;52.052;5.238;2022-09-09T11:18:19;8.65;;;2.80;;
68284;SDS011;55114;52.052;5.238;2022-09-09T11:20:47;9.52;;;2.70;;
68284;SDS011;55114;52.052;5.238;2022-09-09T11:23:17;6.40;;;2.40;;
68284;SDS011;55114;52.052;5.238;2022-09-09T11:25:51;6.82;;;2.75;;
68284;SDS011;55114;52.052;5.238;2022-09-09T11:39:24;7.05;;;2.38;;
68284;SDS011;55114;52.052;5.238;2022-09-09T11:41:55;5.45;;;2.65;;
68284;SDS011;55114;52.052;5.238;2022-09-09T11:44:32;9.32;;;2.75;;
68284;SDS011;55114;52.052;5.238;2022-09-09T11:47:00;9.35;;;2.63;;
68284;SDS011;55114;52.052;5.238;2022-09-09T11:49:28;5.90;;;2.77;;
68284;SDS011;55114;52.052;5.238;2022-09-09T11:51:57;8.18;;;3.15;;
68284;SDS011;55114;52.052;5.238;2022-09-09T11:54:31;7.97;;;3.20;;
68284;SDS011;55114;52.052;5.238;2022-09-09T11:56:58;8.70;;;3.17;;
68284;SDS011;55114;52.052;5.238;2022-09-09T12:01:57;7.80;;;3.00;;
68284;SDS011;55114;52.052;5.238;2022-09-09T12:06:53;8.35;;;3.10;;
68284;SDS011;55114;52.052;5.238;2022-09-09T12:12:04;6.53;;;2.90;;
68284;SDS011;55114;52.052;5.238;2022-09-09T12:17:10;8.95;;;2.80;;
68284;SDS011;55114;52.052;5.238;2022-09-09T12:19:45;10.00;;;3.35;;
68284;SDS011;55114;52.052;5.238;2022-09-09T12:22:27;9.45;;;3.00;;
68284;SDS011;55114;52.052;5.238;2022-09-09T12:25:00;6.88;;;3.10;;
68284;SDS011;55114;52.052;5.238;2022-09-09T12:27:34;6.70;;;3.23;;
68284;SDS011;55114;52.052;5.238;2022-09-09T12:30:10;7.95;;;2.88;;
68284;SDS011;55114;52.052;5.238;2022-09-09T12:32:39;7.93;;;3.13;;
68284;SDS011;55114;52.052;5.238;2022-09-09T12:35:20;9.73;;;3.10;;
68284;SDS011;55114;52.052;5.238;2022-09-09T12:37:55;8.05;;;3.20;;
68284;SDS011;55114;52.052;5.238;2022-09-09T12:40:25;9.20;;;3.30;;
68284;SDS011;55114;52.052;5.238;2022-09-09T12:42:52;8.68;;;3.47;;
68284;SDS011;55114;52.052;5.238;2022-09-09T12:45:25;8.85;;;3.53;;
68284;SDS011;55114;52.052;5.238;2022-09-09T12:50:23;6.85;;;3.30;;
68284;SDS011;55114;52.052;5.238;2022-09-09T12:52:53;6.80;;;3.30;;
68284;SDS011;55114;52.052;5.238;2022-09-09T12:55:21;9.57;;;3.67;;
68284;SDS011;55114;52.052;5.238;2022-09-09T12:57:51;7.72;;;3.13;;
68284;SDS011;55114;52.052;5.238;2022-09-09T13:00:22;8.50;;;2.95;;
68284;SDS011;55114;52.052;5.238;2022-09-09T13:02:51;8.13;;;3.22;;
68284;SDS011;55114;52.052;5.238;2022-09-09T13:05:28;8.63;;;3.20;;
68284;SDS011;55114;52.052;5.238;2022-09-09T13:08:04;8.02;;;3.40;;
68284;SDS011;55114;52.052;5.238;2022-09-09T13:10:35;7.45;;;3.20;;
68284;SDS011;55114;52.052;5.238;2022-09-09T13:13:23;8.18;;;2.70;;
68284;SDS011;55114;52.052;5.238;2022-09-09T13:15:54;8.40;;;3.33;;
68284;SDS011;55114;52.052;5.238;2022-09-09T13:18:29;7.70;;;3.40;;
68284;SDS011;55114;52.052;5.238;2022-09-09T13:20:57;8.02;;;3.47;;
68284;SDS011;55114;52.052;5.238;2022-09-09T13:23:29;7.28;;;3.05;;
68284;SDS011;55114;52.052;5.238;2022-09-09T13:26:01;7.70;;;3.08;;
68284;SDS011;55114;52.052;5.238;2022-09-09T13:28:29;7.78;;;3.30;;
68284;SDS011;55114;52.052;5.238;2022-09-09T13:31:00;8.07;;;3.10;;
68284;SDS011;55114;52.052;5.238;2022-09-09T13:33:30;7.10;;;3.22;;
68284;SDS011;55114;52.052;5.238;2022-09-09T13:36:00;7.53;;;3.40;;
68284;SDS011;55114;52.052;5.238;2022-09-09T13:38:30;9.25;;;3.55;;
68284;SDS011;55114;52.052;5.238;2022-09-09T13:40:59;8.45;;;3.85;;
68284;SDS011;55114;52.052;5.238;2022-09-09T13:43:41;8.13;;;3.73;;
68284;SDS011;55114;52.052;5.238;2022-09-09T13:51:29;7.75;;;3.45;;
68284;SDS011;55114;52.052;5.238;2022-09-09T13:53:57;6.35;;;3.95;;
68284;SDS011;55114;52.052;5.238;2022-09-09T13:56:26;8.77;;;3.60;;
68284;SDS011;55114;52.052;5.238;2022-09-09T13:58:53;7.50;;;3.50;;
68284;SDS011;55114;52.052;5.238;2022-09-09T14:01:20;8.25;;;3.63;;
68284;SDS011;55114;52.052;5.238;2022-09-09T14:03:54;6.40;;;3.63;;
68284;SDS011;55114;52.052;5.238;2022-09-09T14:06:21;9.25;;;4.05;;
68284;SDS011;55114;52.052;5.238;2022-09-09T14:08:49;8.57;;;3.60;;
68284;SDS011;55114;52.052;5.238;2022-09-09T14:11:16;8.52;;;4.00;;
68284;SDS011;55114;52.052;5.238;2022-09-09T14:13:44;8.48;;;4.00;;
68284;SDS011;55114;52.052;5.238;2022-09-09T14:16:11;9.02;;;3.78;;
68284;SDS011;55114;52.052;5.238;2022-09-09T14:18:38;9.45;;;4.13;;
68284;SDS011;55114;52.052;5.238;2022-09-09T14:21:06;8.27;;;3.90;;
68284;SDS011;55114;52.052;5.238;2022-09-09T14:23:34;11.82;;;4.28;;
68284;SDS011;55114;52.052;5.238;2022-09-09T14:26:02;13.02;;;4.45;;
68284;SDS011;55114;52.052;5.238;2022-09-09T14:28:29;12.05;;;5.18;;
68284;SDS011;55114;52.052;5.238;2022-09-09T14:31:16;14.55;;;5.30;;
68284;SDS011;55114;52.052;5.238;2022-09-09T14:33:44;10.53;;;5.07;;
68284;SDS011;55114;52.052;5.238;2022-09-09T14:36:11;16.17;;;5.65;;
68284;SDS011;55114;52.052;5.238;2022-09-09T14:38:38;13.23;;;5.95;;
68284;SDS011;55114;52.052;5.238;2022-09-09T14:41:06;16.27;;;7.15;;
68284;SDS011;55114;52.052;5.238;2022-09-09T14:43:33;20.40;;;8.55;;
68284;SDS011;55114;52.052;5.238;2022-09-09T14:46:04;8.70;;;4.57;;
68284;SDS011;55114;52.052;5.238;2022-09-09T14:48:32;8.82;;;3.80;;
68284;SDS011;55114;52.052;5.238;2022-09-09T14:53:33;6.05;;;2.92;;
68284;SDS011;55114;52.052;5.238;2022-09-09T14:56:17;6.20;;;2.97;;
68284;SDS011;55114;52.052;5.238;2022-09-09T14:58:45;5.13;;;2.50;;
68284;SDS011;55114;52.052;5.238;2022-09-09T15:01:13;5.32;;;2.50;;
68284;SDS011;55114;52.052;5.238;2022-09-09T15:03:41;5.25;;;2.40;;
68284;SDS011;55114;52.052;5.238;2022-09-09T15:06:13;5.47;;;2.80;;
68284;SDS011;55114;52.052;5.238;2022-09-09T15:08:41;6.75;;;3.20;;
68284;SDS011;55114;52.052;5.238;2022-09-09T15:11:09;6.97;;;2.70;;
68284;SDS011;55114;52.052;5.238;2022-09-09T15:13:36;5.45;;;2.60;;
68284;SDS011;55114;52.052;5.238;2022-09-09T15:16:08;6.35;;;2.90;;
68284;SDS011;55114;52.052;5.238;2022-09-09T15:18:35;8.80;;;3.85;;
68284;SDS011;55114;52.052;5.238;2022-09-09T15:21:04;7.65;;;3.28;;
68284;SDS011;55114;52.052;5.238;2022-09-09T15:23:32;8.43;;;3.33;;
68284;SDS011;55114;52.052;5.238;2022-09-09T15:25:59;7.82;;;3.17;;
68284;SDS011;55114;52.052;5.238;2022-09-09T15:28:26;8.90;;;3.60;;
68284;SDS011;55114;52.052;5.238;2022-09-09T15:30:54;9.30;;;3.47;;
68284;SDS011;55114;52.052;5.238;2022-09-09T15:33:22;5.57;;;3.40;;
68284;SDS011;55114;52.052;5.238;2022-09-09T15:35:50;6.63;;;4.10;;
68284;SDS011;55114;52.052;5.238;2022-09-09T15:38:17;9.15;;;4.30;;
68284;SDS011;55114;52.052;5.238;2022-09-09T15:40:52;6.32;;;3.67;;
68284;SDS011;55114;52.052;5.238;2022-09-09T15:43:20;7.10;;;3.40;;
68284;SDS011;55114;52.052;5.238;2022-09-09T15:45:49;6.50;;;3.40;;
68284;SDS011;55114;52.052;5.238;2022-09-09T15:48:19;5.47;;;2.97;;
68284;SDS011;55114;52.052;5.238;2022-09-09T15:50:47;6.43;;;3.10;;
68284;SDS011;55114;52.052;5.238;2022-09-09T15:53:23;6.10;;;3.15;;
68284;SDS011;55114;52.052;5.238;2022-09-09T15:55:53;7.28;;;2.88;;
68284;SDS011;55114;52.052;5.238;2022-09-09T15:58:21;5.88;;;2.58;;
68284;SDS011;55114;52.052;5.238;2022-09-09T16:00:48;5.27;;;2.43;;
68284;SDS011;55114;52.052;5.238;2022-09-09T16:03:16;5.75;;;2.50;;
68284;SDS011;55114;52.052;5.238;2022-09-09T16:05:43;5.00;;;2.63;;
68284;SDS011;55114;52.052;5.238;2022-09-09T16:08:10;6.47;;;2.60;;
68284;SDS011;55114;52.052;5.238;2022-09-09T16:10:37;6.65;;;2.75;;
68284;SDS011;55114;52.052;5.238;2022-09-09T16:13:04;7.30;;;2.80;;
68284;SDS011;55114;52.052;5.238;2022-09-09T16:15:31;6.00;;;2.55;;
68284;SDS011;55114;52.052;5.238;2022-09-09T16:17:59;7.07;;;2.75;;
68284;SDS011;55114;52.052;5.238;2022-09-09T16:20:26;7.75;;;2.83;;
68284;SDS011;55114;52.052;5.238;2022-09-09T16:22:53;7.00;;;2.80;;
68284;SDS011;55114;52.052;5.238;2022-09-09T16:25:22;7.93;;;3.60;;
68284;SDS011;55114;52.052;5.238;2022-09-09T16:27:49;8.25;;;3.47;;
68284;SDS011;55114;52.052;5.238;2022-09-09T16:30:16;7.72;;;3.10;;
68284;SDS011;55114;52.052;5.238;2022-09-09T16:32:43;6.13;;;2.95;;
68284;SDS011;55114;52.052;5.238;2022-09-09T16:35:10;6.30;;;3.30;;
68284;SDS011;55114;52.052;5.238;2022-09-09T16:37:37;8.00;;;3.23;;
68284;SDS011;55114;52.052;5.238;2022-09-09T16:40:04;8.70;;;3.58;;
68284;SDS011;55114;52.052;5.238;2022-09-09T16:42:32;8.85;;;4.30;;
68284;SDS011;55114;52.052;5.238;2022-09-09T16:45:04;10.63;;;4.20;;
68284;SDS011;55114;52.052;5.238;2022-09-09T16:47:32;8.00;;;4.60;;
68284;SDS011;55114;52.052;5.238;2022-09-09T16:50:00;8.70;;;4.83;;
68284;SDS011;55114;52.052;5.238;2022-09-09T16:52:27;10.90;;;4.70;;
68284;SDS011;55114;52.052;5.238;2022-09-09T16:54:54;10.25;;;5.07;;